createdAt,value
2022-12-24T00:01:00.789Z,9.87
2022-12-24T00:02:32.509Z,9.86
2022-12-24T00:04:04.473Z,10.03
2022-12-24T00:05:37.838Z,10.00
2022-12-24T00:07:09.573Z,9.77
2022-12-24T00:08:41.480Z,9.77
2022-12-24T00:10:13.217Z,9.86
2022-12-24T00:11:44.881Z,9.83
2022-12-24T00:13:16.725Z,9.76
2022-12-24T00:14:48.344Z,9.81
2022-12-24T00:16:20.063Z,9.66
2022-12-24T00:17:51.732Z,9.80
2022-12-24T00:19:23.545Z,9.87
2022-12-24T00:20:55.132Z,9.73
2022-12-24T00:22:26.773Z,9.77
2022-12-24T00:23:58.436Z,9.80
2022-12-24T00:25:30.118Z,9.61
2022-12-24T00:27:03.504Z,9.70
2022-12-24T00:28:35.190Z,9.83
2022-12-24T00:30:07.309Z,9.79
2022-12-24T00:31:39.029Z,10.01
2022-12-24T00:33:10.890Z,9.88
2022-12-24T00:34:42.501Z,9.85
2022-12-24T00:36:14.585Z,9.97
2022-12-24T00:37:49.449Z,9.84
2022-12-24T00:39:21.113Z,9.88
2022-12-24T00:40:57.619Z,9.84
2022-12-24T00:42:29.327Z,9.72
2022-12-24T00:44:01.014Z,9.81
2022-12-24T00:45:32.675Z,9.83
2022-12-24T00:47:08.367Z,9.96
2022-12-24T00:48:43.556Z,9.93
2022-12-24T00:50:15.387Z,9.94
2022-12-24T00:51:47.032Z,10.00
2022-12-24T00:53:18.919Z,10.00
2022-12-24T00:54:50.473Z,9.74
2022-12-24T00:56:22.985Z,9.71
2022-12-24T00:57:54.667Z,9.75
2022-12-24T00:59:26.503Z,9.76
2022-12-24T01:00:58.173Z,9.68
2022-12-24T01:02:29.962Z,9.87
2022-12-24T01:04:20.445Z,9.77
2022-12-24T01:05:52.036Z,9.75
2022-12-24T01:07:23.760Z,9.75
2022-12-24T01:08:55.418Z,9.70
2022-12-24T01:10:27.170Z,9.70
2022-12-24T01:11:58.769Z,9.65
2022-12-24T01:13:30.423Z,9.88
2022-12-24T01:15:02.131Z,9.93
2022-12-24T01:16:33.792Z,9.95
2022-12-24T01:18:05.461Z,10.00
2022-12-24T01:19:37.329Z,10.01
2022-12-24T01:21:09.087Z,9.87
2022-12-24T01:22:40.913Z,9.71
2022-12-24T01:24:16.419Z,9.88
2022-12-24T01:25:48.249Z,9.88
2022-12-24T01:27:20.794Z,9.74
2022-12-24T01:28:52.465Z,9.71
2022-12-24T01:30:24.881Z,9.94
2022-12-24T01:31:56.484Z,9.94
2022-12-24T01:33:29.355Z,9.95
2022-12-24T01:35:01.101Z,9.90
2022-12-24T01:36:32.839Z,9.97
2022-12-24T01:38:04.453Z,9.99
2022-12-24T01:39:36.145Z,10.01
2022-12-24T01:41:26.549Z,9.99
2022-12-24T01:43:16.706Z,9.96
2022-12-24T01:44:52.541Z,9.91
2022-12-24T01:46:28.549Z,10.02
2022-12-24T01:48:00.174Z,10.04
2022-12-24T01:49:32.075Z,9.99
2022-12-24T01:51:07.729Z,10.04
2022-12-24T01:52:39.535Z,9.98
2022-12-24T01:54:22.501Z,9.93
2022-12-24T01:55:55.036Z,10.02
2022-12-24T01:57:51.490Z,9.97
2022-12-24T01:59:23.295Z,9.92
2022-12-24T02:00:55.061Z,9.78
2022-12-24T02:02:27.765Z,9.66
2022-12-24T02:04:00.221Z,9.69
2022-12-24T02:05:52.994Z,9.62
2022-12-24T02:07:25.160Z,9.73
2022-12-24T02:08:56.964Z,9.62
2022-12-24T02:10:28.619Z,9.63
2022-12-24T02:12:00.738Z,9.40
2022-12-24T02:13:32.329Z,9.25
2022-12-24T02:15:06.923Z,9.00
2022-12-24T02:17:03.118Z,8.91
2022-12-24T02:18:40.622Z,8.82
2022-12-24T02:20:27.029Z,8.73
2022-12-24T02:22:37.553Z,8.97
2022-12-24T02:24:21.771Z,9.12
2022-12-24T02:26:17.562Z,9.34
2022-12-24T02:28:00.162Z,9.40
2022-12-24T02:29:34.813Z,9.47
2022-12-24T02:31:13.809Z,9.62
2022-12-24T02:32:45.373Z,9.57
2022-12-24T02:34:33.113Z,9.67
2022-12-24T02:36:07.141Z,9.55
2022-12-24T02:37:47.530Z,9.62
2022-12-24T02:39:30.484Z,9.73
2022-12-24T02:41:17.602Z,9.59
2022-12-24T02:42:54.637Z,9.56
2022-12-24T02:44:30.285Z,9.66
2022-12-24T02:46:13.890Z,9.48
2022-12-24T02:47:46.666Z,9.37
2022-12-24T02:49:18.602Z,9.22
2022-12-24T02:51:07.161Z,9.11
2022-12-24T02:52:43.502Z,8.93
2022-12-24T02:54:15.248Z,8.86
2022-12-24T02:56:28.286Z,8.71
2022-12-24T02:58:06.168Z,8.67
2022-12-24T03:00:02.759Z,8.52
2022-12-24T03:01:58.884Z,8.41
2022-12-24T03:03:48.502Z,8.31
2022-12-24T03:05:29.936Z,8.21
2022-12-24T03:07:09.040Z,8.27
2022-12-24T03:09:25.052Z,8.18
2022-12-24T03:11:04.969Z,8.13
2022-12-24T03:12:43.870Z,8.23
2022-12-24T03:14:16.475Z,8.16
2022-12-24T03:15:50.040Z,8.08
2022-12-24T03:17:21.972Z,8.08
2022-12-24T03:18:55.724Z,8.21
2022-12-24T03:20:35.214Z,8.23
2022-12-24T03:22:10.570Z,8.15
2022-12-24T03:23:42.973Z,8.12
2022-12-24T03:25:14.644Z,8.11
2022-12-24T03:26:47.135Z,8.08
2022-12-24T03:28:20.382Z,8.04
2022-12-24T03:29:52.114Z,8.10
2022-12-24T03:31:23.889Z,8.20
2022-12-24T03:32:55.488Z,8.18
2022-12-24T03:34:27.079Z,8.12
2022-12-24T03:35:58.640Z,8.10
2022-12-24T03:37:30.289Z,8.00
2022-12-24T03:39:01.925Z,7.95
2022-12-24T03:40:33.585Z,7.91
2022-12-24T03:42:05.291Z,7.87
2022-12-24T03:43:36.888Z,7.82
2022-12-24T03:45:09.111Z,7.81
2022-12-24T03:46:40.749Z,7.87
2022-12-24T03:48:12.351Z,7.91
2022-12-24T03:49:43.931Z,7.92
2022-12-24T03:51:21.122Z,7.87
2022-12-24T03:52:52.773Z,7.77
2022-12-24T03:54:24.298Z,7.90
2022-12-24T03:55:55.835Z,7.90
2022-12-24T03:57:27.379Z,7.91
2022-12-24T03:58:58.988Z,7.87
2022-12-24T04:00:30.723Z,7.78
2022-12-24T04:02:02.583Z,7.76
2022-12-24T04:03:34.311Z,7.71
2022-12-24T04:05:06.938Z,7.62
2022-12-24T04:06:38.504Z,7.63
2022-12-24T04:08:10.021Z,7.58
2022-12-24T04:09:41.837Z,7.52
2022-12-24T04:11:15.316Z,7.51
2022-12-24T04:12:46.961Z,7.54
2022-12-24T04:14:18.580Z,7.54
2022-12-24T04:16:05.271Z,7.49
2022-12-24T04:17:37.358Z,7.47
2022-12-24T04:19:08.967Z,7.43
2022-12-24T04:20:41.008Z,7.47
2022-12-24T04:22:12.574Z,7.60
2022-12-24T04:23:44.567Z,7.59
2022-12-24T04:25:16.185Z,7.56
2022-12-24T04:26:47.774Z,7.64
2022-12-24T04:28:19.349Z,7.64
2022-12-24T04:29:51.060Z,7.65
2022-12-24T04:31:22.750Z,7.67
2022-12-24T04:32:54.374Z,7.63
2022-12-24T04:34:26.861Z,7.87
2022-12-24T04:36:00.026Z,8.17
2022-12-24T04:37:33.708Z,8.11
2022-12-24T04:39:05.280Z,8.16
2022-12-24T04:40:36.867Z,8.33
2022-12-24T04:42:08.528Z,8.44
2022-12-24T04:43:40.117Z,8.48
2022-12-24T04:45:12.386Z,8.71
2022-12-24T04:46:44.032Z,8.92
2022-12-24T04:48:15.577Z,9.00
2022-12-24T04:49:47.193Z,9.15
2022-12-24T04:51:20.354Z,9.02
2022-12-24T04:52:51.966Z,9.02
2022-12-24T04:54:23.561Z,9.05
2022-12-24T04:55:55.149Z,9.01
2022-12-24T04:57:26.869Z,9.08
2022-12-24T04:58:59.375Z,9.18
2022-12-24T05:00:31.011Z,9.20
2022-12-24T05:02:02.646Z,9.21
2022-12-24T05:03:35.235Z,9.19
2022-12-24T05:05:07.167Z,9.16
2022-12-24T05:06:38.844Z,9.39
2022-12-24T05:08:10.633Z,9.50
2022-12-24T05:09:42.218Z,9.45
2022-12-24T05:11:15.709Z,9.53
2022-12-24T05:12:47.296Z,9.56
2022-12-24T05:14:18.839Z,9.57
2022-12-24T05:15:50.604Z,9.63
2022-12-24T05:17:22.463Z,9.57
2022-12-24T05:18:55.503Z,9.69
2022-12-24T05:20:27.088Z,9.62
2022-12-24T05:22:17.223Z,9.72
2022-12-24T05:24:07.553Z,9.66
2022-12-24T05:25:57.959Z,9.78
2022-12-24T05:27:29.925Z,9.67
2022-12-24T05:29:03.205Z,9.72
2022-12-24T05:30:34.857Z,9.68
2022-12-24T05:32:06.489Z,9.71
2022-12-24T05:33:38.216Z,9.62
2022-12-24T05:35:09.811Z,9.61
2022-12-24T05:36:41.971Z,9.44
2022-12-24T05:38:13.580Z,9.36
2022-12-24T05:39:45.165Z,9.31
2022-12-24T05:41:16.742Z,9.35
2022-12-24T05:42:48.309Z,9.36
2022-12-24T05:44:20.071Z,9.28
2022-12-24T05:45:51.655Z,9.27
2022-12-24T05:47:23.267Z,9.43
2022-12-24T05:48:54.836Z,9.36
2022-12-24T05:50:26.469Z,9.45
2022-12-24T05:52:09.675Z,9.42
2022-12-24T05:53:41.677Z,9.42
2022-12-24T05:55:13.292Z,9.35
2022-12-24T05:56:44.935Z,9.33
2022-12-24T05:58:16.631Z,9.19
2022-12-24T05:59:49.205Z,9.34
2022-12-24T06:01:22.470Z,9.29
2022-12-24T06:02:54.124Z,9.28
2022-12-24T06:04:29.010Z,9.35
2022-12-24T06:06:01.116Z,9.35
2022-12-24T06:07:32.684Z,9.36
2022-12-24T06:09:04.589Z,9.22
2022-12-24T06:10:36.166Z,9.34
2022-12-24T06:12:07.910Z,9.27
2022-12-24T06:13:40.836Z,9.25
2022-12-24T06:15:12.605Z,9.21
2022-12-24T06:16:44.219Z,9.15
2022-12-24T06:18:15.769Z,9.26
2022-12-24T06:19:47.323Z,9.26
2022-12-24T06:21:19.451Z,9.15
2022-12-24T06:22:51.057Z,9.23
2022-12-24T06:24:22.633Z,9.10
2022-12-24T06:25:56.692Z,9.14
2022-12-24T06:27:28.386Z,9.24
2022-12-24T06:28:59.899Z,9.21
2022-12-24T06:30:31.577Z,9.21
2022-12-24T06:32:03.213Z,9.25
2022-12-24T06:33:34.922Z,9.24
2022-12-24T06:35:06.772Z,9.22
2022-12-24T06:36:38.426Z,9.24
2022-12-24T06:38:10.112Z,9.09
2022-12-24T06:39:41.617Z,8.93
2022-12-24T06:41:13.233Z,8.89
2022-12-24T06:42:44.881Z,8.95
2022-12-24T06:44:16.507Z,9.00
2022-12-24T06:45:48.576Z,9.02
2022-12-24T06:47:20.152Z,8.97
2022-12-24T06:48:51.814Z,9.04
2022-12-24T06:50:23.594Z,8.91
2022-12-24T06:51:55.189Z,8.92
2022-12-24T06:53:26.723Z,8.98
2022-12-24T06:54:58.364Z,8.87
2022-12-24T06:56:30.313Z,8.98
2022-12-24T06:58:01.886Z,8.95
2022-12-24T06:59:33.504Z,8.95
2022-12-24T07:01:07.410Z,8.99
2022-12-24T07:02:43.496Z,9.03
2022-12-24T07:04:20.087Z,8.94
2022-12-24T07:05:53.844Z,8.93
2022-12-24T07:07:25.469Z,9.02
2022-12-24T07:08:57.565Z,8.99
2022-12-24T07:10:29.219Z,8.99
2022-12-24T07:12:00.816Z,8.87
2022-12-24T07:13:34.239Z,8.68
2022-12-24T07:15:06.550Z,8.72
2022-12-24T07:16:38.225Z,8.64
2022-12-24T07:18:09.877Z,8.52
2022-12-24T07:19:41.625Z,8.43
2022-12-24T07:21:13.163Z,8.38
2022-12-24T07:22:44.830Z,8.29
2022-12-24T07:24:16.569Z,8.21
2022-12-24T07:25:48.209Z,8.14
2022-12-24T07:27:19.948Z,8.08
2022-12-24T07:28:51.627Z,8.10
2022-12-24T07:30:23.232Z,8.07
2022-12-24T07:31:54.950Z,8.00
2022-12-24T07:33:27.130Z,8.03
2022-12-24T07:34:58.711Z,8.09
2022-12-24T07:36:30.334Z,8.02
2022-12-24T07:38:02.729Z,8.00
2022-12-24T07:39:34.477Z,7.96
2022-12-24T07:41:06.034Z,7.89
2022-12-24T07:42:37.639Z,7.96
2022-12-24T07:44:14.065Z,7.95
2022-12-24T07:45:45.500Z,7.85
2022-12-24T07:47:17.146Z,7.78
2022-12-24T07:48:48.703Z,7.74
2022-12-24T07:50:20.299Z,7.69
2022-12-24T07:51:51.884Z,7.71
2022-12-24T07:53:25.002Z,7.75
2022-12-24T07:54:56.683Z,7.75
2022-12-24T07:56:28.304Z,7.73
2022-12-24T07:57:59.890Z,7.76
2022-12-24T07:59:31.431Z,7.74
2022-12-24T08:01:03.083Z,7.69
2022-12-24T08:02:36.336Z,7.66
2022-12-24T08:04:08.251Z,7.63
2022-12-24T08:05:39.908Z,7.67
2022-12-24T08:07:11.650Z,7.76
2022-12-24T08:08:43.404Z,7.77
2022-12-24T08:10:15.114Z,7.85
2022-12-24T08:11:51.940Z,7.86
2022-12-24T08:13:24.212Z,7.84
2022-12-24T08:14:55.788Z,7.82
2022-12-24T08:16:27.618Z,7.80
2022-12-24T08:17:59.332Z,7.80
2022-12-24T08:19:30.974Z,7.86
2022-12-24T08:21:02.558Z,7.91
2022-12-24T08:22:34.254Z,7.92
2022-12-24T08:24:06.368Z,7.92
2022-12-24T08:25:38.392Z,7.96
2022-12-24T08:27:10.236Z,7.98
2022-12-24T08:28:41.944Z,8.02
2022-12-24T08:30:20.633Z,8.02
2022-12-24T08:31:52.846Z,7.99
2022-12-24T08:33:24.531Z,8.01
2022-12-24T08:34:56.172Z,8.03
2022-12-24T08:36:27.781Z,8.09
2022-12-24T08:37:59.619Z,8.09
2022-12-24T08:39:31.350Z,8.16
2022-12-24T08:41:02.964Z,8.17
2022-12-24T08:42:34.630Z,8.23
2022-12-24T08:44:06.330Z,8.28
2022-12-24T08:45:40.843Z,8.32
2022-12-24T08:47:12.645Z,8.35
2022-12-24T08:48:44.364Z,8.41
2022-12-24T08:50:16.266Z,8.38
2022-12-24T08:51:49.056Z,8.39
2022-12-24T08:53:20.699Z,8.33
2022-12-24T08:54:52.203Z,8.39
2022-12-24T08:56:23.835Z,8.59
2022-12-24T08:57:55.491Z,8.67
2022-12-24T08:59:27.135Z,8.67
2022-12-24T09:00:59.629Z,8.65
2022-12-24T09:02:31.306Z,8.73
2022-12-24T09:04:03.047Z,8.85
2022-12-24T09:05:34.680Z,8.87
2022-12-24T09:07:07.599Z,8.88
2022-12-24T09:09:04.524Z,8.98
2022-12-24T09:10:36.164Z,9.07
2022-12-24T09:12:08.697Z,9.15
2022-12-24T09:13:41.061Z,9.22
2022-12-24T09:15:14.366Z,9.18
2022-12-24T09:16:46.045Z,9.29
2022-12-24T09:18:17.975Z,9.36
2022-12-24T09:19:49.650Z,9.45
2022-12-24T09:21:21.383Z,9.46
2022-12-24T09:22:53.138Z,9.61
2022-12-24T09:24:24.818Z,9.61
2022-12-24T09:25:57.041Z,9.57
2022-12-24T09:27:31.191Z,9.64
2022-12-24T09:29:03.396Z,9.86
2022-12-24T09:30:35.372Z,10.03
2022-12-24T09:32:07.765Z,10.24
2022-12-24T09:33:41.679Z,10.29
2022-12-24T09:35:13.365Z,10.31
2022-12-24T09:36:46.241Z,10.48
2022-12-24T09:38:18.363Z,10.62
2022-12-24T09:39:50.121Z,10.54
2022-12-24T09:41:41.309Z,10.37
2022-12-24T09:43:19.556Z,10.32
2022-12-24T09:45:06.565Z,10.37
2022-12-24T09:46:43.657Z,10.40
2022-12-24T09:48:24.524Z,10.57
2022-12-24T09:49:59.711Z,10.67
2022-12-24T09:51:50.336Z,10.68
2022-12-24T09:53:28.756Z,10.75
2022-12-24T09:55:17.570Z,10.73
2022-12-24T09:56:49.336Z,10.68
2022-12-24T09:58:31.270Z,10.50
2022-12-24T10:00:03.915Z,10.32
2022-12-24T10:01:41.887Z,10.28
2022-12-24T10:03:16.547Z,10.34
2022-12-24T10:04:48.762Z,10.33
2022-12-24T10:06:29.588Z,10.44
2022-12-24T10:08:39.970Z,10.50
2022-12-24T10:10:23.471Z,10.65
2022-12-24T10:12:06.076Z,10.89
2022-12-24T10:13:40.395Z,10.99
2022-12-24T10:15:20.946Z,11.08
2022-12-24T10:17:02.075Z,11.42
2022-12-24T10:18:59.531Z,11.81
2022-12-24T10:20:36.089Z,12.10
2022-12-24T10:22:41.478Z,12.42
2022-12-24T10:24:22.419Z,12.27
2022-12-24T10:26:15.586Z,12.27
2022-12-24T10:27:58.536Z,12.01
2022-12-24T10:29:39.412Z,11.95
2022-12-24T10:31:11.508Z,12.02
2022-12-24T10:32:43.561Z,12.10
2022-12-24T10:34:21.003Z,12.07
2022-12-24T10:35:56.006Z,11.92
2022-12-24T10:37:29.623Z,11.79
2022-12-24T10:39:01.234Z,11.72
2022-12-24T10:40:42.654Z,11.73
2022-12-24T10:42:17.042Z,11.59
2022-12-24T10:43:49.483Z,11.64
2022-12-24T10:45:23.898Z,11.62
2022-12-24T10:46:55.624Z,11.62
2022-12-24T10:49:16.831Z,11.76
2022-12-24T10:51:05.983Z,11.82
2022-12-24T10:52:41.069Z,11.78
2022-12-24T10:54:26.916Z,11.82
2022-12-24T10:56:05.187Z,11.80
2022-12-24T10:57:37.664Z,11.90
2022-12-24T10:59:25.797Z,11.82
2022-12-24T11:00:57.533Z,11.88
2022-12-24T11:02:31.395Z,11.87
2022-12-24T11:04:04.401Z,11.91
2022-12-24T11:05:37.426Z,11.93
2022-12-24T11:07:19.911Z,11.85
2022-12-24T11:08:51.639Z,11.87
2022-12-24T11:10:24.272Z,11.88
2022-12-24T11:11:59.530Z,11.93
2022-12-24T11:13:43.716Z,11.88
2022-12-24T11:15:29.023Z,12.03
2022-12-24T11:17:01.041Z,12.12
2022-12-24T11:18:36.699Z,12.15
2022-12-24T11:20:18.785Z,12.23
2022-12-24T11:21:58.980Z,12.33
2022-12-24T11:23:31.276Z,12.25
2022-12-24T11:25:07.794Z,12.21
2022-12-24T11:26:42.177Z,12.21
2022-12-24T11:28:20.882Z,12.34
2022-12-24T11:29:52.712Z,12.51
2022-12-24T11:31:24.642Z,13.28
2022-12-24T11:33:03.147Z,15.82
2022-12-24T11:34:34.782Z,16.46
2022-12-24T11:36:12.220Z,15.54
2022-12-24T11:37:44.039Z,14.47
2022-12-24T11:39:22.520Z,14.58
2022-12-24T11:40:59.131Z,13.87
2022-12-24T11:42:39.299Z,13.94
2022-12-24T11:44:12.583Z,14.24
2022-12-24T11:45:57.749Z,14.01
2022-12-24T11:47:34.281Z,13.74
2022-12-24T11:49:11.767Z,13.62
2022-12-24T11:50:43.349Z,13.54
2022-12-24T11:52:22.432Z,13.40
2022-12-24T11:54:11.558Z,13.41
2022-12-24T11:55:55.624Z,13.27
2022-12-24T11:57:36.827Z,13.18
2022-12-24T11:59:15.682Z,13.24
2022-12-24T12:00:49.283Z,13.15
2022-12-24T12:02:28.233Z,13.15
2022-12-24T12:04:06.712Z,13.19
2022-12-24T12:05:39.187Z,13.08
2022-12-24T12:07:16.124Z,13.20
2022-12-24T12:08:50.418Z,13.06
2022-12-24T12:10:29.699Z,13.03
2022-12-24T12:12:45.289Z,13.20
2022-12-24T12:14:30.344Z,13.16
2022-12-24T12:16:20.484Z,13.10
2022-12-24T12:17:55.577Z,13.12
2022-12-24T12:19:33.013Z,13.09
2022-12-24T12:21:14.921Z,13.07
2022-12-24T12:23:23.573Z,12.77
2022-12-24T12:24:59.219Z,12.60
2022-12-24T12:26:32.295Z,12.37
2022-12-24T12:28:11.728Z,12.30
2022-12-24T12:29:52.311Z,12.26
2022-12-24T12:31:30.874Z,12.24
2022-12-24T12:33:18.073Z,12.20
2022-12-24T12:35:05.591Z,12.13
2022-12-24T12:36:47.015Z,12.14
2022-12-24T12:38:24.121Z,12.10
2022-12-24T12:39:55.815Z,12.03
2022-12-24T12:42:05.097Z,12.01
2022-12-24T12:43:45.610Z,11.93
2022-12-24T12:45:20.055Z,11.95
2022-12-24T12:47:14.724Z,11.97
2022-12-24T12:49:02.772Z,11.97
2022-12-24T12:50:35.683Z,11.84
2022-12-24T12:52:46.662Z,11.83
2022-12-24T12:54:30.110Z,11.83
2022-12-24T12:56:01.636Z,11.77
2022-12-24T12:57:37.409Z,11.78
2022-12-24T12:59:32.304Z,11.64
2022-12-24T13:01:08.990Z,11.62
2022-12-24T13:03:17.743Z,11.62
2022-12-24T13:05:01.424Z,11.67
2022-12-24T13:07:11.779Z,11.66
2022-12-24T13:09:08.210Z,11.65
2022-12-24T13:10:52.132Z,11.70
2022-12-24T13:12:26.441Z,11.67
2022-12-24T13:14:07.196Z,11.47
2022-12-24T13:16:10.063Z,11.33
2022-12-24T13:17:59.998Z,11.34
2022-12-24T13:20:09.911Z,11.19
2022-12-24T13:21:45.893Z,11.12
2022-12-24T13:23:21.692Z,11.03
2022-12-24T13:24:55.474Z,11.06
2022-12-24T13:26:27.077Z,11.35
2022-12-24T13:28:15.797Z,11.45
2022-12-24T13:30:06.916Z,11.45
2022-12-24T13:31:41.215Z,11.56
2022-12-24T13:33:33.393Z,11.52
2022-12-24T13:35:25.153Z,11.39
2022-12-24T13:37:03.776Z,11.34
2022-12-24T13:38:54.882Z,11.44
2022-12-24T13:40:27.554Z,11.33
2022-12-24T13:41:59.240Z,11.39
2022-12-24T13:44:03.051Z,11.28
2022-12-24T13:45:41.655Z,11.10
2022-12-24T13:47:13.207Z,11.03
2022-12-24T13:48:45.535Z,11.18
2022-12-24T13:50:29.867Z,11.11
2022-12-24T13:52:10.662Z,11.13
2022-12-24T13:53:47.991Z,11.11
2022-12-24T13:55:19.956Z,11.16
2022-12-24T13:56:51.695Z,11.16
2022-12-24T13:58:25.196Z,11.25
2022-12-24T14:00:29.266Z,11.25
2022-12-24T14:02:01.202Z,11.15
2022-12-24T14:03:54.910Z,11.12
2022-12-24T14:05:44.703Z,11.08
2022-12-24T14:07:20.321Z,11.06
2022-12-24T14:08:55.121Z,11.31
2022-12-24T14:10:31.794Z,11.28
2022-12-24T14:12:03.401Z,11.15
2022-12-24T14:13:40.914Z,11.10
2022-12-24T14:15:45.750Z,11.00
2022-12-24T14:17:26.788Z,11.06
2022-12-24T14:19:04.659Z,11.03
2022-12-24T14:20:37.314Z,10.96
2022-12-24T14:22:11.570Z,10.95
2022-12-24T14:23:50.445Z,10.83
2022-12-24T14:25:23.595Z,10.73
2022-12-24T14:26:59.841Z,10.68
2022-12-24T14:28:40.246Z,10.65
2022-12-24T14:30:21.037Z,10.59
2022-12-24T14:31:57.627Z,10.54
2022-12-24T14:33:31.113Z,10.57
2022-12-24T14:35:24.402Z,10.55
2022-12-24T14:36:57.377Z,10.44
2022-12-24T14:38:30.011Z,10.36
2022-12-24T14:40:01.923Z,10.41
2022-12-24T14:41:42.231Z,10.38
2022-12-24T14:43:35.033Z,10.32
2022-12-24T14:45:17.037Z,10.34
2022-12-24T14:47:06.777Z,10.27
2022-12-24T14:48:45.756Z,10.26
2022-12-24T14:50:23.039Z,10.39
2022-12-24T14:52:30.832Z,10.25
2022-12-24T14:54:23.543Z,10.24
2022-12-24T14:55:55.222Z,10.16
2022-12-24T14:57:27.546Z,10.12
2022-12-24T14:59:04.575Z,10.08
2022-12-24T15:00:39.400Z,10.02
2022-12-24T15:02:33.119Z,10.12
2022-12-24T15:05:53.977Z,9.91
2022-12-24T15:07:26.201Z,9.85
2022-12-24T15:08:57.894Z,9.78
2022-12-24T15:10:38.394Z,9.71
2022-12-24T15:12:12.488Z,9.67
2022-12-24T15:13:50.237Z,9.68
2022-12-24T15:15:22.356Z,9.63
2022-12-24T15:16:56.002Z,9.62
2022-12-24T15:18:31.983Z,9.61
2022-12-24T15:20:04.657Z,9.52
2022-12-24T15:21:41.467Z,9.54
2022-12-24T15:23:21.635Z,9.54
2022-12-24T15:24:53.874Z,9.52
2022-12-24T15:26:30.187Z,9.46
2022-12-24T15:28:01.914Z,9.39
2022-12-24T15:29:42.240Z,9.43
2022-12-24T15:31:15.579Z,9.39
2022-12-24T15:32:49.639Z,9.31
2022-12-24T15:34:41.023Z,9.26
2022-12-24T15:36:14.591Z,9.26
2022-12-24T15:37:46.241Z,9.23
2022-12-24T15:39:18.132Z,9.24
2022-12-24T15:40:50.261Z,9.23
2022-12-24T15:42:24.032Z,9.21
2022-12-24T15:44:04.138Z,9.14
2022-12-24T15:45:42.265Z,9.08
2022-12-24T15:47:21.473Z,9.01
2022-12-24T15:48:55.656Z,8.95
2022-12-24T15:50:56.814Z,8.94
2022-12-24T15:52:28.651Z,8.87
2022-12-24T15:54:07.224Z,8.90
2022-12-24T15:55:38.796Z,8.93
2022-12-24T15:57:23.003Z,9.06
2022-12-24T15:59:12.458Z,9.02
2022-12-24T16:00:44.634Z,9.00
2022-12-24T16:02:40.676Z,9.00
2022-12-24T16:04:15.040Z,9.00
2022-12-24T16:05:47.202Z,8.97
2022-12-24T16:07:46.875Z,8.90
2022-12-24T16:09:36.636Z,8.80
2022-12-24T16:11:16.113Z,8.78
2022-12-24T16:12:47.804Z,8.76
2022-12-24T16:14:20.392Z,8.67
2022-12-24T16:15:57.862Z,8.65
2022-12-24T16:17:33.968Z,8.66
2022-12-24T16:19:08.371Z,8.60
2022-12-24T16:20:47.801Z,8.70
2022-12-24T16:22:39.744Z,8.70
2022-12-24T16:24:18.877Z,8.84
2022-12-24T16:25:50.800Z,8.79
2022-12-24T16:27:22.477Z,8.70
2022-12-24T16:28:55.906Z,8.65
2022-12-24T16:30:27.627Z,8.61
2022-12-24T16:31:59.552Z,8.64
2022-12-24T16:33:31.261Z,8.58
2022-12-24T16:35:06.592Z,8.57
2022-12-24T16:36:38.157Z,8.63
2022-12-24T16:38:09.992Z,8.60
2022-12-24T16:39:44.091Z,8.58
2022-12-24T16:47:30.305Z,8.54
2022-12-24T16:49:02.029Z,8.52
2022-12-24T16:50:33.933Z,8.48
2022-12-24T16:52:16.584Z,8.53
2022-12-24T16:53:48.238Z,8.51
2022-12-24T16:55:19.937Z,8.46
2022-12-24T16:56:51.792Z,8.49
2022-12-24T16:58:23.552Z,8.49
2022-12-24T16:59:55.327Z,8.46
2022-12-24T17:01:26.961Z,8.45
2022-12-24T17:02:58.819Z,8.50
2022-12-24T17:04:34.266Z,8.47
2022-12-24T17:06:07.518Z,8.45
2022-12-24T17:07:43.426Z,8.55
2022-12-24T17:09:15.790Z,8.50
2022-12-24T17:10:51.621Z,8.47
2022-12-24T17:12:23.248Z,8.71
2022-12-24T17:13:54.850Z,8.61
2022-12-24T17:15:26.637Z,8.55
2022-12-24T17:16:58.237Z,8.56
2022-12-24T17:18:30.048Z,8.49
2022-12-24T17:20:01.818Z,8.45
2022-12-24T17:21:33.535Z,8.39
2022-12-24T17:23:05.206Z,8.39
2022-12-24T17:24:36.790Z,8.41
2022-12-24T17:26:14.534Z,8.41
2022-12-24T17:27:46.794Z,8.41
2022-12-24T17:29:18.379Z,8.47
2022-12-24T17:30:50.094Z,8.46
2022-12-24T17:32:21.816Z,8.48
2022-12-24T17:33:53.566Z,8.43
2022-12-24T17:35:25.148Z,8.43
2022-12-24T17:36:56.974Z,8.44
2022-12-24T17:38:28.568Z,8.43
2022-12-24T17:40:00.406Z,8.45
2022-12-24T17:41:32.003Z,8.41
2022-12-24T17:43:03.695Z,8.39
2022-12-24T17:44:35.465Z,8.38
2022-12-24T17:46:18.018Z,8.42
2022-12-24T17:47:49.747Z,8.41
2022-12-24T17:49:21.750Z,8.36
2022-12-24T17:50:53.390Z,8.37
2022-12-24T17:52:25.166Z,8.35
2022-12-24T17:53:56.858Z,8.34
2022-12-24T17:55:28.481Z,8.30
2022-12-24T17:57:00.292Z,8.27
2022-12-24T17:58:32.648Z,8.26
2022-12-24T18:00:05.093Z,8.29
2022-12-24T18:01:36.708Z,8.28
2022-12-24T18:03:14.088Z,8.23
2022-12-24T18:04:45.908Z,8.26
2022-12-24T18:06:19.000Z,8.27
2022-12-24T18:07:50.631Z,8.23
2022-12-24T18:09:22.389Z,8.21
2022-12-24T18:10:54.025Z,8.20
2022-12-24T18:12:25.756Z,8.20
2022-12-24T18:13:57.727Z,8.18
2022-12-24T18:15:36.757Z,8.24
2022-12-24T18:17:08.382Z,8.30
2022-12-24T18:18:40.067Z,8.29
2022-12-24T18:20:12.356Z,8.27
2022-12-24T18:21:44.234Z,8.28
2022-12-24T18:23:16.328Z,8.34
2022-12-24T18:24:48.079Z,8.50
2022-12-24T18:26:20.503Z,8.43
2022-12-24T18:27:52.120Z,8.42
2022-12-24T18:29:23.794Z,8.33
2022-12-24T18:31:05.079Z,8.41
2022-12-24T18:32:37.413Z,8.35
2022-12-24T18:34:12.550Z,8.28
2022-12-24T18:35:44.191Z,8.23
2022-12-24T18:37:15.800Z,8.20
2022-12-24T18:38:48.016Z,8.18
2022-12-24T18:40:20.576Z,8.18
2022-12-24T18:41:52.344Z,8.20
2022-12-24T18:43:23.969Z,8.23
2022-12-24T18:44:55.611Z,8.23
2022-12-24T18:46:30.095Z,8.24
2022-12-24T18:48:01.801Z,8.23
2022-12-24T18:49:33.368Z,8.24
2022-12-24T18:51:06.270Z,8.26
2022-12-24T18:52:37.857Z,8.22
2022-12-24T18:54:09.487Z,8.18
2022-12-24T18:55:41.168Z,8.17
2022-12-24T18:57:12.748Z,8.15
2022-12-24T18:58:44.749Z,8.12
2022-12-24T19:00:16.571Z,8.09
2022-12-24T19:01:48.641Z,8.19
2022-12-24T19:03:20.445Z,8.18
2022-12-24T19:04:52.130Z,8.13
2022-12-24T19:06:24.669Z,8.11
2022-12-24T19:07:56.876Z,8.10
2022-12-24T19:09:28.487Z,8.30
2022-12-24T19:11:00.129Z,8.21
2022-12-24T19:12:31.793Z,8.15
2022-12-24T19:14:05.058Z,8.12
2022-12-24T19:15:40.496Z,8.12
2022-12-24T19:17:12.077Z,8.11
2022-12-24T19:18:43.719Z,8.12
2022-12-24T19:20:15.296Z,8.12
2022-12-24T19:21:46.972Z,8.12
2022-12-24T19:23:18.617Z,8.09
2022-12-24T19:24:50.737Z,8.09
2022-12-24T19:26:22.454Z,8.10
2022-12-24T19:27:54.057Z,8.07
2022-12-24T19:29:25.709Z,8.04
2022-12-24T19:31:06.607Z,8.04
2022-12-24T19:32:38.224Z,8.03
2022-12-24T19:34:09.877Z,8.04
2022-12-24T19:35:41.570Z,8.05
2022-12-24T19:37:13.422Z,8.03
2022-12-24T19:38:45.672Z,8.02
2022-12-24T19:40:17.372Z,8.03
2022-12-24T19:41:48.991Z,8.07
2022-12-24T19:43:20.546Z,8.13
2022-12-24T19:44:52.204Z,8.07
2022-12-24T19:46:27.554Z,8.04
2022-12-24T19:47:59.279Z,8.01
2022-12-24T19:49:30.951Z,8.02
2022-12-24T19:51:04.464Z,8.04
2022-12-24T19:52:36.031Z,8.00
2022-12-24T19:54:13.339Z,8.00
2022-12-24T19:55:48.482Z,8.03
2022-12-24T19:57:20.050Z,7.99
2022-12-24T19:58:51.860Z,8.02
2022-12-24T20:00:23.555Z,8.08
2022-12-24T20:01:56.192Z,8.03
2022-12-24T20:03:27.941Z,8.03
2022-12-24T20:04:59.601Z,8.06
2022-12-24T20:06:33.898Z,8.03
2022-12-24T20:08:05.490Z,7.98
2022-12-24T20:09:37.243Z,8.01
2022-12-24T20:11:12.083Z,8.00
2022-12-24T20:12:43.731Z,8.04
2022-12-24T20:14:15.309Z,8.01
2022-12-24T20:15:47.021Z,7.99
2022-12-24T20:17:20.019Z,8.01
2022-12-24T20:19:00.884Z,8.02
2022-12-24T20:20:32.505Z,8.03
2022-12-24T20:22:04.201Z,8.04
2022-12-24T20:23:40.129Z,8.10
2022-12-24T20:25:11.682Z,8.20
2022-12-24T20:26:43.305Z,8.14
2022-12-24T20:28:14.946Z,8.21
2022-12-24T20:29:46.713Z,8.30
2022-12-24T20:31:24.596Z,8.22
2022-12-24T20:32:56.938Z,8.15
2022-12-24T20:34:28.575Z,8.12
2022-12-24T20:36:03.660Z,8.04
2022-12-24T20:37:43.673Z,8.00
2022-12-24T20:39:17.440Z,7.99
2022-12-24T20:40:49.056Z,7.96
2022-12-24T20:42:20.816Z,7.94
2022-12-24T20:43:52.620Z,7.94
2022-12-24T20:45:24.342Z,7.95
2022-12-24T20:46:56.008Z,7.93
2022-12-24T20:48:27.720Z,7.99
2022-12-24T20:49:59.545Z,7.98
2022-12-24T20:51:31.453Z,7.96
2022-12-24T20:53:03.249Z,7.93
2022-12-24T20:54:34.965Z,7.92
2022-12-24T20:56:06.939Z,7.93
2022-12-24T20:57:38.611Z,7.94
2022-12-24T20:59:10.185Z,7.91
2022-12-24T21:00:42.075Z,7.91
2022-12-24T21:02:13.830Z,7.89
2022-12-24T21:03:45.616Z,7.86
2022-12-24T21:05:17.495Z,7.87
2022-12-24T21:06:49.176Z,7.83
2022-12-24T21:08:20.787Z,7.82
2022-12-24T21:09:52.338Z,7.82